Tununak, Alaska
Current Conditions -  °F | °C
As of 1:56 PM on Wednesday 26 Nov 2014 (Local Time) from PAOO Reporting Station
Overcast Overcast  
Wind Chill: 21°   Ceiling: 1200
Heat Index: 34°   Visibility: 10mi
Dew Point: 32°   Wind: 26mph
Humidity: 92%   Direction: 120°ESE
Pressure: 30.09"   Gusts: NA
Location:  60.58°N, 165.25°W
Report Text: PAOO 262256Z AUTO 12023KT 10SM OVC012 01/00 A3009 RMK AO2 TSNO T00110000 PK WND 11028/2255 SLP192 $
Loading
Personal Weather Stations






























Interactive Weather Map New forecast layout! Learn more

10-Day Weather Forecast

Advertisements
Track Severe Weather on mobile